KR-0454 weather

Mol-Udae Heliport
Busan, Busan Gwang'yeogsi, South Korea

Public forecast

Using degrees Celsius for public forecast. Weather courtesy of forecast.io.

METAR (pilot weather report)

Closest report is Gimhae International Airport, 8.5 nm (15.8 km) N. Retrieved 2019/07/24 07:15 UTC (42 minutes ago):

RKPK 240715Z 19007KT 9999 FEW020 SCT030 BKN170 28/24 Q1006 RMK CIG170

TAF (pilot weather forecast)

Closest forecast is Gimhae International Airport, 8.5 nm (15.8 km) N. Retrieved 2019/07/24 06:00 UTC (2 hours ago):

TAF RKPK 240500Z 2406/2512 18006KT 9999 SCT030 BKN200 TN24/2420Z TX31/2505Z BECMG 2502/2503 BKN030